createdAt,value
2022-12-05T17:02:15.797Z,144.50
2022-12-05T17:03:47.761Z,126.00
2022-12-05T17:05:19.461Z,138.50
2022-12-05T17:06:51.134Z,145.50
2022-12-05T17:08:23.430Z,120.50
2022-12-05T17:09:55.142Z,125.80
2022-12-05T17:11:28.043Z,112.40
2022-12-05T17:13:03.192Z,119.40
2022-12-05T17:14:34.941Z,119.60
2022-12-05T17:16:06.908Z,104.60
2022-12-05T17:17:38.751Z,105.50
2022-12-05T17:19:11.263Z,96.00
2022-12-05T17:20:44.781Z,90.25
2022-12-05T17:22:16.579Z,80.75
2022-12-05T17:23:48.578Z,92.75
2022-12-05T17:25:30.742Z,88.75
2022-12-05T17:27:02.485Z,90.75
2022-12-05T17:28:34.204Z,83.75
2022-12-05T17:30:06.781Z,86.50
2022-12-05T17:31:39.002Z,83.50
2022-12-05T17:33:12.111Z,81.00
2022-12-05T17:34:43.905Z,84.75
2022-12-05T17:36:15.611Z,86.00
2022-12-05T17:37:47.414Z,77.50
2022-12-05T17:39:22.451Z,76.50
2022-12-05T17:41:02.450Z,74.00
2022-12-05T17:42:35.669Z,77.50
2022-12-05T17:44:07.431Z,76.75
2022-12-05T17:45:39.117Z,76.25
2022-12-05T17:47:10.877Z,72.50
2022-12-05T17:48:42.639Z,69.75
2022-12-05T17:50:19.460Z,72.00
2022-12-05T17:52:20.675Z,70.25
2022-12-05T17:53:46.062Z,68.75
2022-12-05T17:55:20.147Z,73.00
2022-12-05T17:56:51.896Z,70.50
2022-12-05T17:58:23.777Z,68.50
2022-12-05T17:59:55.525Z,71.75
2022-12-05T18:01:27.407Z,71.00
2022-12-05T18:02:59.224Z,67.00
2022-12-05T18:04:30.925Z,67.25
2022-12-05T18:06:05.117Z,68.25
2022-12-05T18:07:37.753Z,66.20
2022-12-05T18:09:09.438Z,66.25
2022-12-05T18:10:42.897Z,72.40
2022-12-05T18:12:14.713Z,66.00
2022-12-05T18:13:46.405Z,67.60
2022-12-05T18:15:18.159Z,72.20
2022-12-05T18:16:49.886Z,65.80
2022-12-05T18:18:21.631Z,58.75
2022-12-05T18:19:55.961Z,68.80
2022-12-05T18:21:27.649Z,68.60
2022-12-05T18:22:59.471Z,66.40
2022-12-05T18:24:31.163Z,70.75
2022-12-05T18:26:04.882Z,69.60
2022-12-05T18:27:36.606Z,61.00
2022-12-05T18:29:08.289Z,67.60
2022-12-05T18:30:39.906Z,68.20
2022-12-05T18:32:12.207Z,69.60
2022-12-05T18:33:44.541Z,75.50
2022-12-05T18:35:16.365Z,81.75
2022-12-05T18:36:48.004Z,86.25
2022-12-05T18:38:19.672Z,100.25
2022-12-05T18:39:51.351Z,113.80
2022-12-05T18:41:23.683Z,130.20
2022-12-05T18:42:55.349Z,132.00
2022-12-05T18:44:27.025Z,141.00
2022-12-05T18:45:59.653Z,141.25
2022-12-05T18:47:31.713Z,167.50
2022-12-05T18:49:04.231Z,175.25
2022-12-05T18:50:35.917Z,183.00
2022-12-05T18:52:07.608Z,178.75
2022-12-05T18:53:39.487Z,179.25
2022-12-05T18:55:17.155Z,185.75
2022-12-05T18:56:51.132Z,197.25
2022-12-05T18:58:23.970Z,206.33
2022-12-05T18:59:55.824Z,194.75
2022-12-05T19:01:28.280Z,227.67
2022-12-05T19:03:00.066Z,229.67
2022-12-05T19:04:31.691Z,227.67
2022-12-05T19:06:14.256Z,229.67
2022-12-05T19:07:46.573Z,223.33
2022-12-05T19:09:19.327Z,252.67
2022-12-05T19:10:50.985Z,233.00
2022-12-05T19:12:22.667Z,244.67
2022-12-05T19:14:01.358Z,252.67
2022-12-05T19:15:33.165Z,220.00
2022-12-05T19:17:05.006Z,235.67
2022-12-05T19:18:36.764Z,239.33
2022-12-05T19:20:08.866Z,247.67
2022-12-05T19:21:40.779Z,261.00
2022-12-05T19:23:12.460Z,252.00
2022-12-05T19:24:44.746Z,247.00
2022-12-05T19:26:16.494Z,246.67
2022-12-05T19:27:48.184Z,247.67
2022-12-05T19:29:19.811Z,233.67
2022-12-05T19:31:02.189Z,240.67
2022-12-05T19:32:38.491Z,230.00
2022-12-05T19:34:12.232Z,214.33
2022-12-05T19:35:43.948Z,250.00
2022-12-05T19:37:15.643Z,238.00
2022-12-05T19:38:48.492Z,213.00
2022-12-05T19:40:20.127Z,199.67
2022-12-05T19:41:51.877Z,192.00
2022-12-05T19:43:23.561Z,209.50
2022-12-05T19:44:55.249Z,193.75
2022-12-05T19:46:29.638Z,181.00
2022-12-05T19:48:01.483Z,186.50
2022-12-05T19:49:33.242Z,167.25
2022-12-05T19:51:05.103Z,165.25
2022-12-05T19:52:36.850Z,166.25
2022-12-05T19:54:09.150Z,185.00
2022-12-05T19:55:40.867Z,181.50
2022-12-05T19:57:12.632Z,183.50
2022-12-05T19:58:44.654Z,156.75
2022-12-05T20:00:19.883Z,162.50
2022-12-05T20:01:51.628Z,170.50
2022-12-05T20:03:23.434Z,173.50
2022-12-05T20:04:55.165Z,167.25
2022-12-05T20:06:31.156Z,160.75
2022-12-05T20:08:02.871Z,168.50
2022-12-05T20:09:34.841Z,153.75
2022-12-05T20:11:08.843Z,160.75
2022-12-05T20:12:40.551Z,173.50
2022-12-05T20:14:12.754Z,150.50
2022-12-05T20:15:44.442Z,157.50
2022-12-05T20:17:16.923Z,150.75
2022-12-05T20:18:49.047Z,150.75
2022-12-05T20:20:20.711Z,140.75
2022-12-05T20:21:52.494Z,152.25
2022-12-05T20:23:24.718Z,160.00
2022-12-05T20:24:57.246Z,163.25
2022-12-05T20:26:33.714Z,165.00
2022-12-05T20:28:05.895Z,151.50
2022-12-05T20:29:39.035Z,204.00
2022-12-05T20:31:13.210Z,295.50
2022-12-05T20:32:45.022Z,222.33
2022-12-05T20:34:16.723Z,205.67
2022-12-05T20:35:48.398Z,201.75
2022-12-05T20:37:20.359Z,196.75
2022-12-05T20:39:15.339Z,210.25
2022-12-05T20:40:47.050Z,194.50
2022-12-05T20:42:19.247Z,199.00
2022-12-05T20:43:55.551Z,198.25
2022-12-05T20:45:27.235Z,215.00
2022-12-05T20:46:58.946Z,216.00
2022-12-05T20:48:30.743Z,214.67
2022-12-05T20:50:02.393Z,208.67
2022-12-05T20:51:34.319Z,219.33
2022-12-05T20:53:06.670Z,211.33
2022-12-05T20:54:38.650Z,215.33
2022-12-05T20:56:13.979Z,223.00
2022-12-05T20:57:46.587Z,203.33
2022-12-05T20:59:18.287Z,216.00
2022-12-05T21:00:50.012Z,195.00
2022-12-05T21:02:21.680Z,211.00
2022-12-05T21:03:54.240Z,199.33
2022-12-05T21:05:25.904Z,214.67
2022-12-05T21:06:57.713Z,208.00
2022-12-05T21:08:29.371Z,202.75
2022-12-05T21:10:04.886Z,206.25
2022-12-05T21:11:39.702Z,212.25
2022-12-05T21:13:11.378Z,206.50
2022-12-05T21:14:43.123Z,360.00
2022-12-05T21:16:19.761Z,304.00
2022-12-05T21:17:51.483Z,260.67
2022-12-05T21:19:23.214Z,258.00
2022-12-05T21:21:06.008Z,227.33
2022-12-05T21:22:37.734Z,218.33
2022-12-05T21:24:09.739Z,220.00
2022-12-05T21:25:41.965Z,211.33
2022-12-05T21:27:13.710Z,221.00
2022-12-05T21:28:45.807Z,196.00
2022-12-05T21:30:17.523Z,222.00
2022-12-05T21:31:49.942Z,195.67
2022-12-05T21:33:27.264Z,222.33
2022-12-05T21:35:00.359Z,221.67
2022-12-05T21:36:32.803Z,204.33
2022-12-05T21:38:04.498Z,205.67
2022-12-05T21:39:36.722Z,212.00
2022-12-05T21:41:08.390Z,188.75
2022-12-05T21:42:46.816Z,204.25
2022-12-05T21:44:20.700Z,203.00
2022-12-05T21:45:53.556Z,188.75
2022-12-05T21:47:25.573Z,191.75
2022-12-05T21:48:57.467Z,196.00
2022-12-05T21:50:29.209Z,191.75
2022-12-05T21:52:00.870Z,195.25
2022-12-05T21:53:32.632Z,184.25
2022-12-05T21:55:04.537Z,184.25
2022-12-05T21:56:36.239Z,195.50
2022-12-05T21:58:09.939Z,172.00
2022-12-05T21:59:41.694Z,251.33
2022-12-05T22:01:20.041Z,189.50
2022-12-05T22:02:51.826Z,187.00
2022-12-05T22:04:23.793Z,176.50
2022-12-05T22:06:05.758Z,175.75
2022-12-05T22:07:37.448Z,173.50
2022-12-05T22:09:09.184Z,185.00
2022-12-05T22:10:40.795Z,196.50
2022-12-05T22:12:12.492Z,185.75
2022-12-05T22:13:44.671Z,187.25
2022-12-05T22:15:16.515Z,183.25
2022-12-05T22:16:48.182Z,179.00
2022-12-05T22:18:19.881Z,183.00
2022-12-05T22:19:51.557Z,184.25
2022-12-05T22:21:23.251Z,183.00
2022-12-05T22:22:54.933Z,183.25
2022-12-05T22:24:26.614Z,180.50
2022-12-05T22:26:02.445Z,183.75
2022-12-05T22:27:34.106Z,170.75
2022-12-05T22:29:05.922Z,170.00
2022-12-05T22:30:37.573Z,179.50
2022-12-05T22:32:09.231Z,167.50
2022-12-05T22:33:41.075Z,171.25
2022-12-05T22:35:12.837Z,168.75
2022-12-05T22:36:44.536Z,167.50
2022-12-05T22:38:16.171Z,139.25
2022-12-05T22:39:47.985Z,153.75
2022-12-05T22:41:24.495Z,165.00
2022-12-05T22:42:56.145Z,165.00
2022-12-05T22:44:28.134Z,156.50
2022-12-05T22:46:07.183Z,147.75
2022-12-05T22:47:38.963Z,160.25
2022-12-05T22:49:11.659Z,141.25
2022-12-05T22:50:50.550Z,139.75
2022-12-05T22:52:22.253Z,151.75
2022-12-05T22:53:54.208Z,145.75
2022-12-05T22:55:25.925Z,149.75
2022-12-05T22:56:57.566Z,137.25
2022-12-05T22:58:29.261Z,147.75
2022-12-05T23:00:01.294Z,125.50
2022-12-05T23:01:33.926Z,114.00
2022-12-05T23:03:05.736Z,127.75
2022-12-05T23:04:37.419Z,121.50
2022-12-05T23:06:11.827Z,132.75
2022-12-05T23:07:46.096Z,118.75
2022-12-05T23:09:17.979Z,136.25
2022-12-05T23:10:49.687Z,121.75
2022-12-05T23:12:21.494Z,118.80
2022-12-05T23:14:01.173Z,117.80
2022-12-05T23:15:33.691Z,116.00
2022-12-05T23:17:05.309Z,102.40
2022-12-05T23:18:46.816Z,107.40
2022-12-05T23:20:18.810Z,109.00
2022-12-05T23:21:50.442Z,107.60
2022-12-05T23:23:22.103Z,130.25
2022-12-05T23:24:54.794Z,125.80
2022-12-05T23:26:29.210Z,125.75
2022-12-05T23:28:00.907Z,120.00
2022-12-05T23:29:32.837Z,149.75
2022-12-05T23:31:08.381Z,114.00
2022-12-05T23:32:40.079Z,130.25
2022-12-05T23:34:12.138Z,140.00
